Terminal Aerodrome Forecast
Issued by NWS

Home | Current Version | Previous Version | Text Only | Print | Product List | Glossary On
Versions: 1 2 3 4 5 6 7 8 9 10 11 12 13 14 15 16 17 18 19 20 21 22 23 24
000
FTUS41 KBTV 241007 AAA
TAFRUT
TAF AMD
KRUT 241007Z 2410/2506 13009G18KT 6SM -SNPL BR SCT015 OVC025
      TEMPO 2410/2414 5SM -FZRAPL BR OVC015
     FM241400 09014G20KT 3SM -FZRA BR OVC020
     FM241800 07010G18KT 4SM -RAPL BR OVC015
     FM242300 33009KT 5SM -FZRA BR OVC009=

USA.gov is the U.S. government's official web portal to all federal, state and local government web resources and services.